createdAt,value
2022-12-01T00:02:33.705Z,966.62
2022-12-01T00:07:35.325Z,966.58
2022-12-01T00:12:36.698Z,966.53
2022-12-01T00:17:38.300Z,966.48
2022-12-01T00:22:40.131Z,966.5
2022-12-01T00:27:41.593Z,966.48
2022-12-01T00:32:42.729Z,966.43
2022-12-01T00:37:43.916Z,966.47
2022-12-01T00:42:45.874Z,966.43
2022-12-01T00:47:46.918Z,966.44
2022-12-01T00:52:48.352Z,966.5
2022-12-01T00:57:49.576Z,966.45
2022-12-01T01:02:50.809Z,966.57
2022-12-01T01:07:52.848Z,966.55
2022-12-01T01:12:54.586Z,966.59
2022-12-01T01:17:55.929Z,966.59
2022-12-01T01:22:57.302Z,966.56
2022-12-01T01:27:59.151Z,966.56
2022-12-01T01:33:00.574Z,966.5
2022-12-01T01:38:02.288Z,966.51
2022-12-01T01:43:04.274Z,966.5
2022-12-01T01:48:06.019Z,966.52
2022-12-01T01:53:07.630Z,966.48
2022-12-01T01:58:09.392Z,966.45
2022-12-01T02:03:11.045Z,966.56
2022-12-01T02:08:12.968Z,966.52
2022-12-01T02:13:15.041Z,966.31
2022-12-01T02:18:16.989Z,966.18
2022-12-01T02:23:19.099Z,966.11
2022-12-01T02:28:21.045Z,966.23
2022-12-01T02:33:22.285Z,966.18
2022-12-01T02:38:24.404Z,966.16
2022-12-01T02:43:25.846Z,966.18
2022-12-01T02:48:27.419Z,966.14
2022-12-01T02:53:28.630Z,966.05
2022-12-01T02:58:30.461Z,966.03
2022-12-01T03:03:32.094Z,966.02
2022-12-01T03:08:33.666Z,966.02
2022-12-01T03:13:35.626Z,966.04
2022-12-01T03:18:37.544Z,966.04
2022-12-01T03:23:39.126Z,965.97
2022-12-01T03:28:40.813Z,965.99
2022-12-01T03:33:42.281Z,966.04
2022-12-01T03:38:44.365Z,966.07
2022-12-01T03:43:46.053Z,966.05
2022-12-01T03:48:47.552Z,966.11
2022-12-01T03:53:49.664Z,966.1
2022-12-01T03:58:51.689Z,966.14
2022-12-01T04:03:52.899Z,966.14
2022-12-01T04:08:54.462Z,966.16
2022-12-01T04:13:56.026Z,966.13
2022-12-01T04:18:57.983Z,966.04
2022-12-01T04:23:59.978Z,966.07
2022-12-01T04:29:02.157Z,966.07
2022-12-01T04:34:03.427Z,966.04
2022-12-01T04:39:04.801Z,966.04
2022-12-01T04:44:06.353Z,966.02
2022-12-01T04:49:07.628Z,966.01
2022-12-01T04:54:08.988Z,966.02
2022-12-01T04:59:10.731Z,966.07
2022-12-01T05:04:12.707Z,966.09
2022-12-01T05:09:17.331Z,966.11
2022-12-01T05:14:16.952Z,966.17
2022-12-01T05:19:18.740Z,966.12
2022-12-01T05:24:20.906Z,966.17
2022-12-01T05:29:22.431Z,966.18
2022-12-01T05:34:23.628Z,966.19
2022-12-01T05:39:25.618Z,966.17
2022-12-01T05:44:27.281Z,966.18
2022-12-01T05:49:29.124Z,966.2
2022-12-01T05:54:31.267Z,966.2
2022-12-01T05:59:33.231Z,966.19
2022-12-01T06:04:35.279Z,966.17
2022-12-01T06:09:36.614Z,966.25
2022-12-01T06:14:38.615Z,966.28
2022-12-01T06:19:40.463Z,966.29
2022-12-01T06:24:42.133Z,966.27
2022-12-01T06:29:43.786Z,966.31
2022-12-01T06:34:45.035Z,966.35
2022-12-01T06:39:47.123Z,966.42
2022-12-01T06:44:48.726Z,966.42
2022-12-01T06:49:50.088Z,966.45
2022-12-01T06:54:51.945Z,966.48
2022-12-01T06:59:53.358Z,966.48
2022-12-01T07:04:55.052Z,966.5
2022-12-01T07:09:56.627Z,966.47
2022-12-01T07:14:58.226Z,966.48
2022-12-01T07:19:59.503Z,966.52
2022-12-01T07:25:01.392Z,966.54
2022-12-01T07:30:03.604Z,966.56
2022-12-01T07:35:05.671Z,966.59
2022-12-01T07:40:07.244Z,966.64
2022-12-01T07:45:08.612Z,966.64
2022-12-01T07:50:09.805Z,966.67
2022-12-01T07:55:11.016Z,966.66
2022-12-01T08:00:12.561Z,966.74
2022-12-01T08:05:14.561Z,966.74
2022-12-01T08:10:16.082Z,966.72
2022-12-01T08:15:18.275Z,966.75
2022-12-01T08:20:23.843Z,966.79
2022-12-01T08:25:21.750Z,966.8
2022-12-01T08:30:23.834Z,966.81
2022-12-01T08:35:25.343Z,966.77
2022-12-01T08:40:27.363Z,966.75
2022-12-01T08:45:29.434Z,966.78
2022-12-01T08:50:31.173Z,966.81
2022-12-01T08:55:32.636Z,966.8
2022-12-01T09:00:33.921Z,966.76
2022-12-01T09:05:35.695Z,966.8
2022-12-01T09:10:37.044Z,966.81
2022-12-01T09:15:38.788Z,966.82
2022-12-01T09:20:40.649Z,966.86
2022-12-01T09:25:42.374Z,966.91
2022-12-01T09:30:44.024Z,966.9
2022-12-01T09:35:46.033Z,966.86
2022-12-01T09:40:47.956Z,966.82
2022-12-01T10:06:25.596Z,966.65
2022-12-01T10:15:58.652Z,966.54
2022-12-01T10:20:59.879Z,966.5
2022-12-01T10:26:01.327Z,966.48
2022-12-01T10:41:07.098Z,966.35
2022-12-01T10:56:12.289Z,966.27
2022-12-01T11:01:14.493Z,966.26
2022-12-01T11:06:15.563Z,966.19
2022-12-01T11:11:17.317Z,966.2
2022-12-01T11:16:18.812Z,966.22
2022-12-01T11:21:20.194Z,966.18
2022-12-01T11:26:22.277Z,966.12
2022-12-01T11:31:25.049Z,966.1
2022-12-01T11:36:25.718Z,966.12
2022-12-01T11:41:27.292Z,966.12
2022-12-01T11:46:29.038Z,966.1
2022-12-01T11:51:31.340Z,966.14
2022-12-01T11:56:38.290Z,966.13
2022-12-01T12:01:40.066Z,966.12
2022-12-01T12:06:41.643Z,966.1
2022-12-01T12:11:43.552Z,966.09
2022-12-01T12:16:45.421Z,966.1
2022-12-01T12:21:47.465Z,966.07
2022-12-01T12:26:48.760Z,966.03
2022-12-01T12:31:50.845Z,965.97
2022-12-01T12:36:52.567Z,965.97
2022-12-01T12:41:54.107Z,965.94
2022-12-01T12:46:56.293Z,965.9
2022-12-01T12:51:57.658Z,965.9
2022-12-01T12:56:59.162Z,965.92
2022-12-01T13:02:00.855Z,965.91
2022-12-01T13:07:02.759Z,965.89
2022-12-01T13:12:03.982Z,965.87
2022-12-01T13:17:06.175Z,965.9
2022-12-01T13:22:07.546Z,965.93
2022-12-01T13:27:09.134Z,965.93
2022-12-01T13:32:10.485Z,965.88
2022-12-01T13:37:12.044Z,965.88
2022-12-01T13:42:13.278Z,965.85
2022-12-01T13:47:14.986Z,965.82
2022-12-01T13:52:16.725Z,965.81
2022-12-01T13:57:18.741Z,965.83
2022-12-01T14:02:20.669Z,965.83
2022-12-01T14:07:22.190Z,965.85
2022-12-01T14:12:23.399Z,965.78
2022-12-01T14:17:25.466Z,965.74
2022-12-01T14:22:26.809Z,965.77
2022-12-01T14:27:28.820Z,965.73
2022-12-01T14:32:30.781Z,965.78
2022-12-01T14:37:32.812Z,965.77
2022-12-01T14:42:34.161Z,965.83
2022-12-01T14:47:35.823Z,965.84
2022-12-01T14:52:37.290Z,965.76
2022-12-01T14:57:38.594Z,965.85
2022-12-01T15:02:39.989Z,965.82
2022-12-01T15:07:41.527Z,965.83
2022-12-01T15:12:43.111Z,965.8
2022-12-01T15:17:45.214Z,965.81
2022-12-01T15:22:46.839Z,965.79
2022-12-01T15:27:48.893Z,965.8
2022-12-01T15:32:50.774Z,965.8
2022-12-01T15:37:52.362Z,965.77
2022-12-01T15:42:54.454Z,965.77
2022-12-01T15:47:55.853Z,965.84
2022-12-01T15:52:57.726Z,965.87
2022-12-01T15:57:59.885Z,965.9
2022-12-01T16:03:02.112Z,965.91
2022-12-01T16:08:12.902Z,965.83
2022-12-01T16:13:04.493Z,965.81
2022-12-01T16:18:06.654Z,965.86
2022-12-01T16:23:08.626Z,965.91
2022-12-01T16:28:10.197Z,965.87
2022-12-01T16:33:12.301Z,965.85
2022-12-01T16:38:14.175Z,965.87
2022-12-01T16:43:15.678Z,965.86
2022-12-01T16:48:17.552Z,965.86
2022-12-01T16:53:19.226Z,965.88
2022-12-01T16:58:21.225Z,965.85
2022-12-01T17:03:22.740Z,965.83
2022-12-01T17:08:24.773Z,965.88
2022-12-01T17:13:26.046Z,965.86
2022-12-01T17:18:28.187Z,965.83
2022-12-01T17:23:30.132Z,965.87
2022-12-01T17:28:32.210Z,965.84
2022-12-01T17:33:33.709Z,965.8
2022-12-01T17:38:35.748Z,965.76
2022-12-01T17:43:37.776Z,965.82
2022-12-01T17:48:39.530Z,965.82
2022-12-01T17:53:41.265Z,965.88
2022-12-01T17:58:42.751Z,965.87
2022-12-01T18:03:44.784Z,965.89
2022-12-01T18:08:46.695Z,965.96
2022-12-01T18:13:48.448Z,965.95
2022-12-01T18:18:50.416Z,965.96
2022-12-01T18:23:51.813Z,965.92
2022-12-01T18:28:53.544Z,966
2022-12-01T18:33:55.482Z,966.05
2022-12-01T18:38:56.629Z,966.07
2022-12-01T18:43:58.640Z,966.05
2022-12-01T18:49:00.329Z,966.08
2022-12-01T18:54:01.549Z,966.03
2022-12-01T18:59:03.639Z,966.05
2022-12-01T19:04:05.720Z,966
2022-12-01T19:09:06.922Z,966.02
2022-12-01T19:14:08.628Z,966.02
2022-12-01T19:19:09.938Z,966
2022-12-01T19:24:11.143Z,966.04
2022-12-01T19:29:12.618Z,966
2022-12-01T19:34:14.670Z,965.97
2022-12-01T19:39:16.505Z,966.01
2022-12-01T19:44:18.607Z,965.97
2022-12-01T19:49:20.476Z,965.99
2022-12-01T19:54:21.928Z,966.01
2022-12-01T19:59:23.723Z,966.03
2022-12-01T20:04:25.200Z,965.99
2022-12-01T20:09:27.256Z,966.01
2022-12-01T20:14:28.961Z,966.03
2022-12-01T20:19:30.971Z,965.97
2022-12-01T20:24:32.834Z,966.01
2022-12-01T20:29:33.960Z,965.98
2022-12-01T20:34:36.218Z,965.99
2022-12-01T20:39:37.513Z,965.99
2022-12-01T20:44:38.671Z,966.01
2022-12-01T20:49:40.546Z,966.01
2022-12-01T20:54:41.825Z,966
2022-12-01T20:59:43.954Z,966.05
2022-12-01T21:04:46.039Z,966.02
2022-12-01T21:09:47.568Z,965.95
2022-12-01T21:14:49.814Z,965.96
2022-12-01T21:19:51.757Z,965.95
2022-12-01T21:24:53.265Z,965.92
2022-12-01T21:29:54.470Z,965.93
2022-12-01T21:34:56.022Z,965.91
2022-12-01T21:39:58.000Z,965.9
2022-12-01T21:45:00.154Z,965.89
2022-12-01T21:50:01.651Z,965.86
2022-12-01T21:55:03.111Z,965.84
2022-12-01T22:00:04.369Z,965.89
2022-12-01T22:05:06.157Z,965.87
2022-12-01T22:10:09.217Z,965.78
2022-12-01T22:15:09.321Z,965.72
2022-12-01T22:20:11.071Z,965.72
2022-12-01T22:25:12.409Z,965.72
2022-12-01T22:30:14.282Z,965.69
2022-12-01T22:35:16.123Z,965.68
2022-12-01T22:40:17.381Z,965.62
2022-12-01T22:45:18.795Z,965.55
2022-12-01T22:50:20.950Z,965.58
2022-12-01T22:55:22.291Z,965.59
2022-12-01T23:12:01.100Z,965.44
2022-12-01T23:15:28.334Z,965.39
2022-12-01T23:20:29.716Z,965.4
2022-12-01T23:25:31.692Z,965.4
2022-12-01T23:30:33.065Z,965.33
2022-12-01T23:35:34.816Z,965.27
2022-12-01T23:40:36.408Z,965.27
2022-12-01T23:45:38.361Z,965.21
2022-12-01T23:50:40.486Z,965.17
2022-12-01T23:55:41.909Z,965.11
